createdAt,value
2023-04-21T00:01:29.642Z,99810.88
2023-04-21T00:03:56.996Z,99818.63
2023-04-21T00:06:24.311Z,99806.63
2023-04-21T00:08:52.011Z,99818.84
2023-04-21T00:11:19.365Z,99807.31
2023-04-21T00:13:46.408Z,99812.41
2023-04-21T00:16:14.033Z,99803.59
2023-04-21T00:18:41.727Z,99812.00
2023-04-21T00:21:09.312Z,99810.25
2023-04-21T00:23:36.694Z,99807.59
2023-04-21T00:26:03.767Z,99806.00
2023-04-21T00:28:31.319Z,99802.84
2023-04-21T00:30:59.115Z,99800.31
2023-04-21T00:33:26.496Z,99801.28
2023-04-21T00:35:57.019Z,99816.75
2023-04-21T00:38:24.495Z,99811.63
2023-04-21T00:40:51.881Z,99810.66
2023-04-21T00:43:19.047Z,99818.75
2023-04-21T00:45:47.058Z,99808.44
2023-04-21T00:48:14.257Z,99814.84
2023-04-21T00:50:41.905Z,99806.25
2023-04-21T00:53:09.566Z,99808.75
2023-04-21T00:55:36.624Z,99814.84
2023-04-21T00:58:03.944Z,99812.28
2023-04-21T01:00:31.758Z,99807.06
2023-04-21T01:03:00.629Z,99800.84
2023-04-21T01:05:27.722Z,99812.13
2023-04-21T01:07:55.277Z,99803.06
2023-04-21T01:10:23.857Z,99807.09
2023-04-21T01:12:51.617Z,99801.84
2023-04-21T01:15:19.379Z,99787.72
2023-04-21T01:17:47.358Z,99792.97
2023-04-21T01:20:14.544Z,99798.28
2023-04-21T01:22:42.094Z,99791.16
2023-04-21T01:25:09.605Z,99796.38
2023-04-21T01:27:37.892Z,99794.94
2023-04-21T01:30:07.179Z,99800.03
2023-04-21T01:32:35.897Z,99797.53
2023-04-21T01:35:03.478Z,99792.97
2023-04-21T01:37:31.611Z,99798.31
2023-04-21T01:40:01.043Z,99792.19
2023-04-21T01:42:28.816Z,99797.75
2023-04-21T01:44:58.633Z,99785.13
2023-04-21T01:47:26.523Z,99790.50
2023-04-21T01:49:53.564Z,99782.84
2023-04-21T01:52:21.473Z,99788.94
2023-04-21T01:54:49.377Z,99784.22
2023-04-21T01:57:16.651Z,99786.19
2023-04-21T01:59:44.552Z,99773.78
2023-04-21T02:02:12.064Z,99777.91
2023-04-21T02:07:06.757Z,99772.97
2023-04-21T02:09:34.224Z,99775.72
2023-04-21T02:12:02.076Z,99759.47
2023-04-21T02:14:29.453Z,99760.78
2023-04-21T02:16:57.006Z,99767.53
2023-04-21T02:19:24.418Z,99765.34
2023-04-21T02:21:52.095Z,99768.34
2023-04-21T02:24:22.071Z,99767.25
2023-04-21T02:26:49.489Z,99763.63
2023-04-21T02:29:17.009Z,99763.34
2023-04-21T02:31:58.939Z,99764.63
2023-04-21T02:34:30.744Z,99752.88
2023-04-21T02:36:59.050Z,99765.22
2023-04-21T02:39:26.422Z,99763.13
2023-04-21T02:41:54.060Z,99756.94
2023-04-21T02:44:21.433Z,99761.72
2023-04-21T02:46:48.614Z,99758.44
2023-04-21T02:49:16.127Z,99754.81
2023-04-21T02:51:43.504Z,99755.00
2023-04-21T02:54:10.821Z,99752.88
2023-04-21T02:56:38.354Z,99757.25
2023-04-21T02:59:06.843Z,99752.44
2023-04-21T03:01:34.066Z,99752.31
2023-04-21T03:04:01.350Z,99746.19
2023-04-21T03:06:28.572Z,99739.41
2023-04-21T03:08:56.381Z,99744.72
2023-04-21T03:11:24.270Z,99740.19
2023-04-21T03:13:53.577Z,99750.59
2023-04-21T03:16:21.585Z,99749.25
2023-04-21T03:18:48.706Z,99745.63
2023-04-21T03:21:16.292Z,99745.00
2023-04-21T03:23:43.703Z,99751.34
2023-04-21T03:26:11.889Z,99746.22
2023-04-21T03:28:39.108Z,99740.22
2023-04-21T03:31:06.383Z,99747.97
2023-04-21T03:33:34.139Z,99750.78
2023-04-21T03:36:01.631Z,99749.28
2023-04-21T03:38:30.962Z,99740.78
2023-04-21T03:40:58.326Z,99746.44
2023-04-21T03:43:25.594Z,99736.44
2023-04-21T03:45:53.029Z,99742.59
2023-04-21T03:48:20.416Z,99746.41
2023-04-21T03:50:47.506Z,99731.75
2023-04-21T03:53:14.909Z,99731.75
2023-04-21T03:55:41.971Z,99724.06
2023-04-21T03:58:09.384Z,99723.94
2023-04-21T04:00:36.922Z,99721.78
2023-04-21T04:03:04.400Z,99729.53
2023-04-21T04:05:31.801Z,99715.56
2023-04-21T04:07:59.370Z,99717.16
2023-04-21T04:10:26.375Z,99719.97
2023-04-21T04:12:55.051Z,99707.56
2023-04-21T04:15:22.090Z,99708.16
2023-04-21T04:17:50.119Z,99709.31
2023-04-21T04:20:17.800Z,99715.13
2023-04-21T04:22:45.295Z,99708.03
2023-04-21T04:25:14.628Z,99703.47
2023-04-21T04:27:41.733Z,99698.81
2023-04-21T04:30:09.278Z,99694.25
2023-04-21T04:32:39.344Z,99694.94
2023-04-21T04:35:07.044Z,99694.19
2023-04-21T04:37:36.540Z,99691.13
2023-04-21T04:40:06.338Z,99693.28
2023-04-21T04:42:34.437Z,99681.41
2023-04-21T04:45:01.800Z,99694.28
2023-04-21T04:47:29.468Z,99684.22
2023-04-21T04:49:56.556Z,99678.41
2023-04-21T04:52:24.157Z,99671.75
2023-04-21T04:54:51.546Z,99665.84
2023-04-21T04:57:19.108Z,99660.53
2023-04-21T04:59:47.043Z,99667.94
2023-04-21T05:02:14.222Z,99663.13
2023-04-21T05:04:41.521Z,99668.94
2023-04-21T05:07:08.855Z,99655.84
2023-04-21T05:09:36.349Z,99656.34
2023-04-21T05:12:03.823Z,99657.44
2023-04-21T05:14:31.234Z,99654.94
2023-04-21T05:16:58.662Z,99655.28
2023-04-21T05:19:26.072Z,99646.66
2023-04-21T05:21:53.963Z,99645.25
2023-04-21T05:24:24.105Z,99635.16
2023-04-21T05:26:51.236Z,99637.81
2023-04-21T05:29:18.658Z,99637.69
2023-04-21T05:31:46.448Z,99629.28
2023-04-21T05:34:13.699Z,99626.72
2023-04-21T05:36:43.790Z,99626.22
2023-04-21T05:39:11.242Z,99627.75
2023-04-21T05:41:38.430Z,99627.53
2023-04-21T05:44:05.987Z,99618.06
2023-04-21T05:46:34.510Z,99623.38
2023-04-21T05:49:04.695Z,99624.25
2023-04-21T05:51:32.386Z,99623.38
2023-04-21T05:53:59.892Z,99618.97
2023-04-21T05:56:27.413Z,99611.44
2023-04-21T05:58:54.858Z,99604.56
2023-04-21T06:01:22.307Z,99611.38
2023-04-21T06:03:50.366Z,99609.28
2023-04-21T06:06:17.903Z,99598.63
2023-04-21T06:08:45.707Z,99605.56
2023-04-21T06:11:16.032Z,99599.94
2023-04-21T06:13:43.759Z,99597.91
2023-04-21T06:16:11.149Z,99597.44
2023-04-21T06:18:38.473Z,99582.94
2023-04-21T06:21:05.770Z,99583.75
2023-04-21T06:23:32.956Z,99586.72
2023-04-21T06:26:05.519Z,99582.53
2023-04-21T06:28:33.748Z,99581.69
2023-04-21T06:31:01.574Z,99579.75
2023-04-21T06:33:29.472Z,99579.78
2023-04-21T06:35:56.646Z,99579.59
2023-04-21T06:38:23.754Z,99567.78
2023-04-21T06:40:51.047Z,99554.16
2023-04-21T06:43:18.200Z,99566.00
2023-04-21T06:45:45.592Z,99550.78
2023-04-21T06:48:13.212Z,99560.09
2023-04-21T06:50:40.802Z,99554.81
2023-04-21T06:53:09.608Z,99552.63
2023-04-21T06:55:36.697Z,99559.53
2023-04-21T06:58:04.337Z,99567.38
2023-04-21T07:00:31.393Z,99555.25
2023-04-21T07:02:58.881Z,99548.91
2023-04-21T07:05:26.123Z,99540.09
2023-04-21T07:07:55.684Z,99539.25
2023-04-21T07:10:23.633Z,99547.56
2023-04-21T07:12:50.696Z,99539.56
2023-04-21T07:15:17.938Z,99535.91
2023-04-21T07:17:45.111Z,99532.91
2023-04-21T07:20:12.877Z,99536.84
2023-04-21T07:22:40.478Z,99531.16
2023-04-21T07:25:08.207Z,99532.91
2023-04-21T07:27:38.613Z,99534.34
2023-04-21T07:30:06.736Z,99528.69
2023-04-21T07:32:34.515Z,99522.09
2023-04-21T07:35:02.413Z,99514.88
2023-04-21T07:37:29.650Z,99518.63
2023-04-21T07:39:56.855Z,99520.84
2023-04-21T07:42:24.134Z,99521.84
2023-04-21T07:44:51.379Z,99514.22
2023-04-21T07:47:18.718Z,99523.81
2023-04-21T07:49:45.975Z,99522.13
2023-04-21T07:52:13.183Z,99516.53
2023-04-21T07:54:40.255Z,99520.09
2023-04-21T07:57:08.000Z,99506.91
2023-04-21T07:59:35.526Z,99511.66
2023-04-21T08:02:02.967Z,99500.25
2023-04-21T08:04:30.873Z,99495.63
2023-04-21T08:06:59.120Z,99495.28
2023-04-21T08:09:26.969Z,99487.63
2023-04-21T08:11:55.302Z,99489.28
2023-04-21T08:14:22.547Z,99496.97
2023-04-21T08:16:49.962Z,99496.16
2023-04-21T08:19:17.604Z,99497.41
2023-04-21T08:21:44.807Z,99497.97
2023-04-21T08:24:12.575Z,99488.91
2023-04-21T08:26:40.108Z,99483.81
2023-04-21T08:29:09.885Z,99488.66
2023-04-21T08:31:37.195Z,99487.78
2023-04-21T08:34:04.680Z,99483.94
2023-04-21T08:36:32.023Z,99486.84
2023-04-21T08:38:59.612Z,99478.88
2023-04-21T08:41:26.914Z,99482.19
2023-04-21T08:43:54.031Z,99495.38
2023-04-21T08:46:21.401Z,99486.16
2023-04-21T08:48:48.581Z,99483.63
2023-04-21T08:51:21.461Z,99482.97
2023-04-21T08:53:48.833Z,99486.69
2023-04-21T08:56:16.166Z,99483.09
2023-04-21T08:58:44.019Z,99493.19
2023-04-21T09:01:11.863Z,99482.84
2023-04-21T09:03:39.517Z,99506.81
2023-04-21T09:06:08.716Z,99502.66
2023-04-21T09:08:39.537Z,99510.50
2023-04-21T09:11:07.223Z,99516.03
2023-04-21T09:13:35.526Z,99518.47
2023-04-21T09:16:18.175Z,99509.53
2023-04-21T09:18:46.032Z,99521.88
2023-04-21T09:21:17.573Z,99521.97
2023-04-21T09:23:44.651Z,99529.56
2023-04-21T09:26:12.072Z,99530.91
2023-04-21T09:28:46.884Z,99532.03
2023-04-21T09:31:19.749Z,99536.66
2023-04-21T09:33:57.928Z,99522.88
2023-04-21T09:36:28.487Z,99528.41
2023-04-21T09:39:20.597Z,99534.44
2023-04-21T09:41:44.759Z,99537.59
2023-04-21T09:44:12.285Z,99538.28
2023-04-21T09:46:39.469Z,99536.13
2023-04-21T09:49:07.098Z,99541.56
2023-04-21T09:51:55.556Z,99537.78
2023-04-21T09:56:53.863Z,99544.19
2023-04-21T09:59:24.816Z,99540.53
2023-04-21T10:01:52.550Z,99555.81
2023-04-21T10:04:20.461Z,99549.63
2023-04-21T10:06:48.610Z,99558.47
2023-04-21T10:09:16.402Z,99559.16
2023-04-21T10:11:44.206Z,99564.81
2023-04-21T10:14:11.577Z,99565.53
2023-04-21T10:16:39.073Z,99573.53
2023-04-21T10:19:26.113Z,99574.56
2023-04-21T10:21:56.972Z,99575.72
2023-04-21T10:24:24.080Z,99563.66
2023-04-21T10:26:54.062Z,99563.09
2023-04-21T10:29:56.156Z,99565.22
2023-04-21T10:32:43.355Z,99575.53
2023-04-21T10:35:11.924Z,99578.69
2023-04-21T10:37:41.130Z,99585.53
2023-04-21T10:40:43.205Z,99598.25
2023-04-21T10:43:47.210Z,99599.75
2023-04-21T10:46:35.789Z,99600.31
2023-04-21T10:49:10.349Z,99600.50
2023-04-21T10:51:59.649Z,99603.34
2023-04-21T10:54:27.716Z,99598.53
2023-04-21T10:56:55.728Z,99600.22
2023-04-21T10:59:23.961Z,99608.91
2023-04-21T11:01:51.415Z,99605.38
2023-04-21T11:04:20.488Z,99601.88
2023-04-21T11:07:16.737Z,99598.47
2023-04-21T11:09:45.785Z,99595.97
2023-04-21T11:12:15.477Z,99588.09
2023-04-21T11:14:43.769Z,99595.56
2023-04-21T11:17:12.216Z,99585.50
2023-04-21T11:19:39.576Z,99592.03
2023-04-21T11:22:10.056Z,99601.88
2023-04-21T11:24:37.709Z,99611.41
2023-04-21T11:27:08.471Z,99626.50
2023-04-21T11:29:36.195Z,99624.47
2023-04-21T11:32:08.282Z,99624.06
2023-04-21T11:34:39.253Z,99614.78
2023-04-21T11:37:16.543Z,99614.88
2023-04-21T11:39:44.377Z,99615.81
2023-04-21T11:42:11.836Z,99618.56
2023-04-21T11:44:43.116Z,99626.25
2023-04-21T11:47:17.831Z,99621.63
2023-04-21T11:50:04.205Z,99628.94
2023-04-21T11:52:33.368Z,99624.78
2023-04-21T11:55:05.376Z,99632.88
2023-04-21T11:57:33.273Z,99635.59
2023-04-21T12:00:01.960Z,99628.25
2023-04-21T12:02:33.475Z,99626.59
2023-04-21T12:05:02.219Z,99635.03
2023-04-21T12:07:33.976Z,99641.44
2023-04-21T12:10:02.479Z,99643.94
2023-04-21T12:12:29.704Z,99642.91
2023-04-21T12:14:57.051Z,99644.56
2023-04-21T12:17:24.479Z,99642.63
2023-04-21T12:19:51.661Z,99635.66
2023-04-21T12:22:19.000Z,99633.69
2023-04-21T12:24:46.521Z,99630.91
2023-04-21T12:27:13.976Z,99635.84
2023-04-21T12:29:44.116Z,99640.56
2023-04-21T12:32:11.736Z,99642.41
2023-04-21T12:34:39.118Z,99639.72
2023-04-21T12:37:07.419Z,99642.75
2023-04-21T12:39:34.922Z,99650.50
2023-04-21T12:42:02.246Z,99650.53
2023-04-21T12:44:29.809Z,99653.38
2023-04-21T12:46:57.358Z,99649.69
2023-04-21T12:49:25.470Z,99650.19
2023-04-21T12:51:52.897Z,99651.03
2023-04-21T12:54:20.290Z,99646.66
2023-04-21T12:56:49.846Z,99641.94
2023-04-21T12:59:16.898Z,99649.97
2023-04-21T13:01:44.142Z,99646.94
2023-04-21T13:04:11.546Z,99655.91
2023-04-21T13:06:39.503Z,99651.06
2023-04-21T13:09:09.262Z,99659.25
2023-04-21T13:11:36.374Z,99659.41
2023-04-21T13:14:06.519Z,99660.09
2023-04-21T13:16:33.733Z,99657.59
2023-04-21T13:19:01.146Z,99663.94
2023-04-21T13:21:28.301Z,99663.06
2023-04-21T13:23:57.414Z,99668.06
2023-04-21T13:26:24.639Z,99680.25
2023-04-21T13:28:52.077Z,99683.75
2023-04-21T13:31:19.477Z,99690.94
2023-04-21T13:33:46.807Z,99690.41
2023-04-21T13:36:14.218Z,99685.03
2023-04-21T13:38:41.838Z,99700.06
2023-04-21T13:41:09.321Z,99697.81
2023-04-21T13:43:36.695Z,99700.91
2023-04-21T13:46:03.771Z,99695.00
2023-04-21T13:48:31.302Z,99703.31
2023-04-21T13:50:58.640Z,99699.44
2023-04-21T13:53:26.648Z,99700.91
2023-04-21T13:55:56.648Z,99702.34
2023-04-21T13:58:23.986Z,99711.66
2023-04-21T14:00:51.367Z,99705.56
2023-04-21T14:03:19.064Z,99705.66
2023-04-21T14:05:46.886Z,99712.91
2023-04-21T14:08:14.201Z,99706.94
2023-04-21T14:10:41.536Z,99709.84
2023-04-21T14:13:12.826Z,99710.59
2023-04-21T14:15:44.921Z,99718.38
2023-04-21T14:18:13.319Z,99716.28
2023-04-21T14:20:40.833Z,99717.75
2023-04-21T14:23:08.147Z,99717.88
2023-04-21T14:25:35.681Z,99722.84
2023-04-21T14:28:06.992Z,99716.25
2023-04-21T14:30:38.908Z,99723.72
2023-04-21T14:33:06.412Z,99718.09
2023-04-21T14:35:33.553Z,99715.25
2023-04-21T14:38:01.076Z,99716.78
2023-04-21T14:40:28.268Z,99718.09
2023-04-21T14:42:57.768Z,99721.34
2023-04-21T14:45:25.537Z,99723.19
2023-04-21T14:47:53.449Z,99718.69
2023-04-21T14:50:22.408Z,99729.34
2023-04-21T14:52:49.873Z,99723.22
2023-04-21T14:55:18.569Z,99717.50
2023-04-21T14:57:47.028Z,99725.22
2023-04-21T15:00:14.737Z,99717.97
2023-04-21T15:02:42.287Z,99734.41
2023-04-21T15:05:09.721Z,99728.81
2023-04-21T15:07:37.104Z,99731.78
2023-04-21T15:10:04.720Z,99732.91
2023-04-21T15:12:32.697Z,99737.00
2023-04-21T15:15:01.029Z,99735.28
2023-04-21T15:17:28.468Z,99735.88
2023-04-21T15:19:56.170Z,99741.50
2023-04-21T15:22:23.503Z,99740.81
2023-04-21T15:24:53.131Z,99739.41
2023-04-21T15:27:21.709Z,99738.84
2023-04-21T15:29:49.341Z,99735.09
2023-04-21T15:32:16.291Z,99743.78
2023-04-21T15:34:43.491Z,99736.47
2023-04-21T15:37:14.218Z,99735.09
2023-04-21T15:39:41.417Z,99739.72
2023-04-21T15:42:09.280Z,99733.56
2023-04-21T15:44:38.796Z,99740.00
2023-04-21T15:47:06.652Z,99744.09
2023-04-21T15:49:34.471Z,99740.00
2023-04-21T15:52:03.635Z,99744.78
2023-04-21T15:54:34.028Z,99730.38
2023-04-21T15:57:05.120Z,99727.28
2023-04-21T15:59:34.735Z,99742.13
2023-04-21T16:02:02.419Z,99742.25
2023-04-21T16:04:29.816Z,99746.03
2023-04-21T16:06:57.231Z,99737.38
2023-04-21T16:09:24.322Z,99735.41
2023-04-21T16:11:51.853Z,99740.59
2023-04-21T16:14:19.019Z,99747.75
2023-04-21T16:16:46.719Z,99739.16
2023-04-21T16:19:17.175Z,99738.47
2023-04-21T16:21:44.373Z,99734.69
2023-04-21T16:24:11.985Z,99739.19
2023-04-21T16:26:39.216Z,99742.00
2023-04-21T16:29:07.088Z,99745.19
2023-04-21T16:31:34.530Z,99746.47
2023-04-21T16:34:01.675Z,99743.66
2023-04-21T16:36:30.806Z,99738.19
2023-04-21T16:38:58.374Z,99740.16
2023-04-21T16:41:25.941Z,99743.34
2023-04-21T16:43:53.194Z,99747.97
2023-04-21T16:46:20.847Z,99746.72
2023-04-21T16:48:48.435Z,99750.50
2023-04-21T16:51:15.502Z,99752.72
2023-04-21T16:53:42.763Z,99759.00
2023-04-21T16:56:10.098Z,99762.66
2023-04-21T16:58:37.496Z,99763.34
2023-04-21T17:01:07.114Z,99759.16
2023-04-21T17:03:35.126Z,99763.63
2023-04-21T17:06:09.227Z,99764.06
2023-04-21T17:08:37.344Z,99763.34
2023-04-21T17:11:04.990Z,99766.16
2023-04-21T17:13:34.235Z,99768.81
2023-04-21T17:16:01.602Z,99768.34
2023-04-21T17:18:29.272Z,99766.94
2023-04-21T17:20:56.705Z,99770.44
2023-04-21T17:23:23.747Z,99770.72
2023-04-21T17:25:51.525Z,99769.88
2023-04-21T17:28:18.722Z,99778.16
2023-04-21T17:30:46.795Z,99780.09
2023-04-21T17:33:17.334Z,99775.44
2023-04-21T17:35:59.920Z,99778.78
2023-04-21T17:38:30.194Z,99778.38
2023-04-21T17:40:57.241Z,99776.97
2023-04-21T17:43:24.601Z,99774.16
2023-04-21T17:45:52.159Z,99783.13
2023-04-21T17:48:22.224Z,99773.47
2023-04-21T17:50:49.432Z,99773.84
2023-04-21T17:53:17.461Z,99781.69
2023-04-21T17:55:45.328Z,99780.28
2023-04-21T17:58:12.784Z,99784.88
2023-04-21T18:00:40.533Z,99785.72
2023-04-21T18:03:08.278Z,99781.38
2023-04-21T18:05:35.428Z,99785.16
2023-04-21T18:08:03.013Z,99787.25
2023-04-21T18:10:30.248Z,99783.00
2023-04-21T18:12:58.073Z,99780.63
2023-04-21T18:15:25.440Z,99791.38
2023-04-21T18:17:53.289Z,99795.16
2023-04-21T18:20:20.810Z,99795.56
2023-04-21T18:22:49.651Z,99787.81
2023-04-21T18:25:27.301Z,99781.94
2023-04-21T18:28:05.574Z,99789.59
2023-04-21T18:30:33.145Z,99791.53
2023-04-21T18:33:00.609Z,99799.66
2023-04-21T18:35:28.177Z,99792.53
2023-04-21T18:37:55.310Z,99790.94
2023-04-21T18:40:22.635Z,99790.00
2023-04-21T18:42:49.632Z,99784.78
2023-04-21T18:45:17.091Z,99784.94
2023-04-21T18:47:45.603Z,99787.97
2023-04-21T18:50:13.495Z,99794.13
2023-04-21T18:52:40.492Z,99797.91
2023-04-21T18:55:08.743Z,99805.28
2023-04-21T18:57:36.514Z,99801.06
2023-04-21T19:00:06.629Z,99804.81
2023-04-21T19:02:36.534Z,99806.75
2023-04-21T19:05:04.898Z,99807.00
2023-04-21T19:07:31.946Z,99797.63
2023-04-21T19:09:59.338Z,99809.22
2023-04-21T19:12:29.810Z,99801.25
2023-04-21T19:14:57.121Z,99803.22
2023-04-21T19:17:24.634Z,99800.41
2023-04-21T19:19:51.725Z,99801.63
2023-04-21T19:22:19.959Z,99801.75
2023-04-21T19:24:47.338Z,99798.38
2023-04-21T19:27:14.765Z,99803.69
2023-04-21T19:29:42.647Z,99799.94
2023-04-21T19:32:09.821Z,99804.41
2023-04-21T19:34:37.383Z,99803.69
2023-04-21T19:37:04.964Z,99801.56
2023-04-21T19:39:32.564Z,99799.75
2023-04-21T19:42:00.709Z,99802.66
2023-04-21T19:44:28.156Z,99804.72
2023-04-21T19:46:55.298Z,99801.22
2023-04-21T19:49:24.737Z,99804.00
2023-04-21T19:51:51.953Z,99805.94
2023-04-21T19:54:19.280Z,99805.50
2023-04-21T19:56:46.857Z,99810.22
2023-04-21T19:59:14.261Z,99812.16
2023-04-21T20:01:41.621Z,99816.00
2023-04-21T20:04:11.894Z,99815.41
2023-04-21T20:06:39.996Z,99836.78
2023-04-21T20:09:07.799Z,99835.22
2023-04-21T20:11:35.530Z,99833.88
2023-04-21T20:14:03.187Z,99825.09
2023-04-21T20:16:31.497Z,99818.22
2023-04-21T20:18:59.060Z,99824.50
2023-04-21T20:21:27.231Z,99816.78
2023-04-21T20:23:54.600Z,99814.97
2023-04-21T20:26:22.199Z,99817.63
2023-04-21T20:28:49.555Z,99819.81
2023-04-21T20:31:18.679Z,99821.84
2023-04-21T20:33:46.076Z,99818.63
2023-04-21T20:36:13.203Z,99816.94
2023-04-21T20:38:41.661Z,99818.75
2023-04-21T20:41:09.482Z,99825.97
2023-04-21T20:43:36.507Z,99821.19
2023-04-21T20:46:04.205Z,99825.66
2023-04-21T20:48:31.286Z,99834.78
2023-04-21T20:50:58.644Z,99831.53
2023-04-21T20:53:26.802Z,99835.16
2023-04-21T20:55:53.857Z,99837.81
2023-04-21T20:58:24.662Z,99843.25
2023-04-21T21:00:51.946Z,99839.03
2023-04-21T21:03:19.847Z,99835.53
2023-04-21T21:05:47.410Z,99829.84
2023-04-21T21:08:19.553Z,99832.38
2023-04-21T21:10:46.907Z,99836.75
2023-04-21T21:13:14.155Z,99843.94
2023-04-21T21:15:41.739Z,99845.88
2023-04-21T21:18:09.120Z,99849.25
2023-04-21T21:20:36.606Z,99853.72
2023-04-21T21:23:03.932Z,99854.44
2023-04-21T21:25:31.515Z,99846.59
2023-04-21T21:28:02.147Z,99850.34
2023-04-21T21:30:29.305Z,99847.81
2023-04-21T21:32:56.802Z,99843.22
2023-04-21T21:35:23.931Z,99843.81
2023-04-21T21:37:51.225Z,99847.44
2023-04-21T21:40:18.562Z,99851.78
2023-04-21T21:42:46.291Z,99843.09
2023-04-21T21:45:13.414Z,99842.25
2023-04-21T21:47:43.159Z,99845.88
2023-04-21T21:50:13.136Z,99853.72
2023-04-21T21:52:40.875Z,99849.03
2023-04-21T21:55:08.631Z,99854.09
2023-04-21T21:57:36.727Z,99854.44
2023-04-21T22:00:08.477Z,99865.16
2023-04-21T22:02:35.884Z,99865.28
2023-04-21T22:05:05.817Z,99863.59
2023-04-21T22:07:32.918Z,99869.84
2023-04-21T22:10:00.294Z,99868.19
2023-04-21T22:12:27.422Z,99860.47
2023-04-21T22:14:57.258Z,99855.41
2023-04-21T22:17:25.127Z,99859.75
2023-04-21T22:19:53.499Z,99856.50
2023-04-21T22:22:20.685Z,99864.34
2023-04-21T22:24:50.414Z,99862.66
2023-04-21T22:27:17.810Z,99865.31
2023-04-21T22:29:44.748Z,99868.03
2023-04-21T22:32:12.168Z,99860.97
2023-04-21T22:34:39.207Z,99868.03
2023-04-21T22:37:06.571Z,99869.97
2023-04-21T22:39:34.089Z,99861.41
2023-04-21T22:42:02.278Z,99867.44
2023-04-21T22:44:29.951Z,99871.06
2023-04-21T22:46:57.256Z,99866.59
2023-04-21T22:49:24.705Z,99876.22
2023-04-21T22:51:52.130Z,99878.63
2023-04-21T22:54:19.057Z,99866.13
2023-04-21T22:56:46.296Z,99870.09
2023-04-21T22:59:13.363Z,99870.09
2023-04-21T23:01:40.719Z,99876.59
2023-04-21T23:04:08.626Z,99873.84
2023-04-21T23:06:35.782Z,99874.94
2023-04-21T23:09:03.836Z,99885.41
2023-04-21T23:11:31.522Z,99883.59
2023-04-21T23:13:59.255Z,99882.84
2023-04-21T23:16:26.510Z,99878.41
2023-04-21T23:18:54.012Z,99888.94
2023-04-21T23:21:21.410Z,99883.41
2023-04-21T23:23:49.195Z,99893.28
2023-04-21T23:26:16.772Z,99889.16
2023-04-21T23:28:43.861Z,99890.00
2023-04-21T23:31:11.248Z,99895.97
2023-04-21T23:33:38.581Z,99881.13
2023-04-21T23:36:06.329Z,99893.47
2023-04-21T23:38:33.409Z,99884.09
2023-04-21T23:41:00.822Z,99879.97
2023-04-21T23:43:28.710Z,99890.22
2023-04-21T23:45:55.737Z,99891.38
2023-04-21T23:48:23.145Z,99893.84
2023-04-21T23:50:50.389Z,99892.56
2023-04-21T23:53:17.770Z,99882.63
2023-04-21T23:55:45.850Z,99888.91
2023-04-21T23:58:13.510Z,99894.94
